Godthab, Greenland
Current Conditions -  °F | °C
As of 11:50 PM on Wednesday 17 Dec 2014 (Local Time) from BGGH Reporting Station
Broken Clouds Broken Clouds  
Wind Chill: -3°   Ceiling: 8300
Heat Index: 10°   Visibility: 6mi
Dew Point:   Wind: 10mph
Humidity: 62%   Direction: 90°E
Pressure: 29.62"   Gusts: NA
Location:  64.18°N, 51.72°W
Report Text: BGGH 180150Z AUTO 09009KT 9999NDV FEW060/// BKN083/// M12/M18 Q1003
Loading
Personal Weather Stations






























Interactive Weather Map New forecast layout! Learn more

10-Day Weather Forecast

Advertisements
Track Severe Weather on mobile